Strona główna
METAR-TAF:

METAR-TAF

Lotnisko :

Port lotniczy Dżuba

Dżuba, Sudan

Szerokość geograficzna: 04-52N, Długość geograficzna: 031-36E, wysokość: 460 m

METAR: brakujący

czas: 16:14 (14:14 UTC)

Prognoza

Raport powstał 3 godziny i 14 minut temu, godzina 11:00 UTC
Prognoza ważna od 27 godzina 12 UTC do 28 godzina 18 UTC
Wiatr 5 kt od północ
Widzialność 10 km lub więcej
Brak chmur poniżej 1500 m i brak chmur cumulonimbus
Przejściowo
od 27 godzina 12 UTC do 27 godzina 18 UTC
Wiatr 5 kt od północ w porywach dochodzący do 15 kt
Widzialność: 8000 m
Mało chmury na wysokości 14000 ft
Prawdopodobieństwo 30% :
Przejściowo
od 27 godzina 18 UTC do 27 godzina 24 UTC
Wiatr 6 kt od północ w porywach dochodzący do 16 kt
Widzialność: 6000 m
Mało chmury na wysokości 14000 ft

TAF: HSSJ 271100Z 2712/2818 35005KT CAVOK TEMPO 2712/2718 36005G15KT 8000 FEW140 PROB30 TEMPO 2718/2724 36006G16KT 6000 FEW140

Obserwacja i prognoza pogody dla ponad 4000 lotnisk (raport METAR i TAF).

Dostępne stacje oznaczono żółtymi i czerwonymi punktami na mapie.

Najedź kursorem aby zobaczyć nazwę stacji.

Kliknij aby zobaczyć obserwacje i prognozy pogody.

Aby zmienić mapę: kliknij na zielony przycisk z czarnym krzyżykiem, aby powiększyć; na zielony przycisk z myślnikiem, aby pomniejszyć; na zielone strzałki, aby przejść do map sąsiednich.


METAR-TAF: